createdAt,value
2023-02-22T00:00:14.532Z,94879.06
2023-02-22T00:02:40.915Z,94875.66
2023-02-22T00:05:07.339Z,94879.44
2023-02-22T00:07:33.720Z,94877.16
2023-02-22T00:10:00.126Z,94879.19
2023-02-22T00:12:26.667Z,94883.03
2023-02-22T00:14:53.118Z,94887.97
2023-02-22T00:17:19.497Z,94883.88
2023-02-22T00:19:45.869Z,94887.00
2023-02-22T00:22:12.273Z,94884.78
2023-02-22T00:24:38.633Z,94880.66
2023-02-22T00:27:05.012Z,94879.53
2023-02-22T00:29:31.380Z,94883.28
2023-02-22T00:31:57.978Z,94884.06
2023-02-22T00:34:24.453Z,94884.06
2023-02-22T00:36:50.817Z,94881.06
2023-02-22T00:39:17.207Z,94874.63
2023-02-22T00:41:43.631Z,94881.44
2023-02-22T00:44:10.105Z,94881.78
2023-02-22T00:46:36.486Z,94879.88
2023-02-22T00:49:02.857Z,94881.00
2023-02-22T00:51:29.214Z,94866.69
2023-02-22T00:53:55.578Z,94880.66
2023-02-22T00:56:21.939Z,94881.81
2023-02-22T00:58:48.315Z,94881.00
2023-02-22T01:01:15.117Z,94881.06
2023-02-22T01:03:41.662Z,94882.19
2023-02-22T01:06:08.337Z,94882.25
2023-02-22T01:08:34.714Z,94879.25
2023-02-22T01:11:01.111Z,94877.72
2023-02-22T01:13:27.468Z,94870.25
2023-02-22T01:15:53.874Z,94877.44
2023-02-22T01:18:20.238Z,94860.81
2023-02-22T01:20:46.637Z,94872.19
2023-02-22T01:23:13.008Z,94863.53
2023-02-22T01:25:39.394Z,94867.69
2023-02-22T01:28:05.763Z,94866.19
2023-02-22T01:30:32.199Z,94859.41
2023-02-22T01:32:58.655Z,94860.56
2023-02-22T01:35:25.035Z,94865.47
2023-02-22T01:37:51.447Z,94859.06
2023-02-22T01:40:17.849Z,94860.56
2023-02-22T01:42:44.239Z,94860.56
2023-02-22T01:45:10.632Z,94854.91
2023-02-22T01:47:37.010Z,94853.41
2023-02-22T01:50:03.389Z,94853.78
2023-02-22T01:52:29.745Z,94851.16
2023-02-22T01:54:56.147Z,94848.16
2023-02-22T01:57:22.566Z,94851.91
2023-02-22T01:59:48.936Z,94853.81
2023-02-22T02:02:15.313Z,94841.00
2023-02-22T02:04:41.737Z,94848.22
2023-02-22T02:07:08.103Z,94846.78
2023-02-22T02:09:34.471Z,94842.97
2023-02-22T02:12:00.833Z,94852.44
2023-02-22T02:14:27.225Z,94849.38
2023-02-22T02:16:53.742Z,94849.06
2023-02-22T02:19:20.130Z,94855.13
2023-02-22T02:21:46.507Z,94846.03
2023-02-22T02:24:12.892Z,94847.16
2023-02-22T02:26:39.270Z,94852.06
2023-02-22T02:29:06.775Z,94846.00
2023-02-22T02:31:33.180Z,94853.56
2023-02-22T02:33:59.594Z,94846.44
2023-02-22T02:36:26.025Z,94845.69
2023-02-22T02:38:52.400Z,94844.91
2023-02-22T02:41:19.039Z,94841.50
2023-02-22T02:43:45.569Z,94841.88
2023-02-22T02:46:11.979Z,94836.97
2023-02-22T02:48:38.371Z,94838.09
2023-02-22T02:51:04.750Z,94835.06
2023-02-22T02:53:31.142Z,94835.06
2023-02-22T02:55:57.532Z,94832.44
2023-02-22T02:58:23.909Z,94831.72
2023-02-22T03:00:50.270Z,94825.69
2023-02-22T03:03:16.686Z,94821.91
2023-02-22T03:05:43.042Z,94826.84
2023-02-22T03:08:09.461Z,94821.91
2023-02-22T03:10:35.821Z,94827.97
2023-02-22T03:13:02.224Z,94821.91
2023-02-22T03:15:28.579Z,94818.50
2023-02-22T03:17:54.979Z,94820.38
2023-02-22T03:20:21.365Z,94823.44
2023-02-22T03:22:47.726Z,94826.13
2023-02-22T03:25:14.132Z,94823.47
2023-02-22T03:27:40.515Z,94824.19
2023-02-22T03:30:06.947Z,94824.59
2023-02-22T03:32:33.344Z,94830.31
2023-02-22T03:34:59.735Z,94825.81
2023-02-22T03:37:26.086Z,94827.38
2023-02-22T03:39:52.490Z,94828.53
2023-02-22T03:42:18.856Z,94830.03
2023-02-22T03:44:45.228Z,94822.84
2023-02-22T03:47:11.627Z,94828.84
2023-02-22T03:49:38.041Z,94823.94
2023-02-22T03:52:04.451Z,94825.41
2023-02-22T03:54:30.836Z,94830.31
2023-02-22T03:56:57.218Z,94826.56
2023-02-22T03:59:23.603Z,94823.91
2023-02-22T04:01:49.997Z,94821.28
2023-02-22T04:04:16.444Z,94823.53
2023-02-22T04:06:43.969Z,94823.53
2023-02-22T04:09:10.335Z,94827.66
2023-02-22T04:11:36.731Z,94830.66
2023-02-22T04:14:03.136Z,94828.84
2023-02-22T04:16:29.511Z,94832.25
2023-02-22T04:18:55.928Z,94839.41
2023-02-22T04:21:22.299Z,94833.38
2023-02-22T04:23:48.679Z,94837.13
2023-02-22T04:26:15.034Z,94840.16
2023-02-22T04:28:41.425Z,94837.91
2023-02-22T04:31:07.816Z,94835.63
2023-02-22T04:33:34.229Z,94839.38
2023-02-22T04:36:00.625Z,94832.94
2023-02-22T04:38:27.000Z,94837.91
2023-02-22T04:40:53.416Z,94836.75
2023-02-22T04:43:19.773Z,94835.25
2023-02-22T04:45:46.125Z,94839.41
2023-02-22T04:48:13.771Z,94837.91
2023-02-22T04:50:40.154Z,94845.81
2023-02-22T04:53:06.538Z,94843.59
2023-02-22T04:55:32.961Z,94841.72
2023-02-22T04:57:59.341Z,94840.56
2023-02-22T05:00:25.701Z,94839.44
2023-02-22T05:02:52.086Z,94839.81
2023-02-22T05:05:18.494Z,94830.00
2023-02-22T05:07:44.873Z,94828.09
2023-02-22T05:10:11.303Z,94833.75
2023-02-22T05:12:37.653Z,94825.09
2023-02-22T05:15:04.031Z,94826.19
2023-02-22T05:17:30.453Z,94829.56
2023-02-22T05:19:56.829Z,94825.78
2023-02-22T05:22:23.206Z,94823.16
2023-02-22T05:24:49.596Z,94821.66
2023-02-22T05:27:15.964Z,94822.78
2023-02-22T05:29:42.359Z,94819.75
2023-02-22T05:32:08.788Z,94820.91
2023-02-22T05:34:35.190Z,94822.44
2023-02-22T05:37:01.573Z,94822.06
2023-02-22T05:39:27.980Z,94818.28
2023-02-22T05:41:54.352Z,94814.47
2023-02-22T05:44:20.950Z,94826.56
2023-02-22T05:46:47.437Z,94825.06
2023-02-22T05:49:13.864Z,94827.34
2023-02-22T05:51:40.303Z,94817.91
2023-02-22T05:54:06.666Z,94819.41
2023-02-22T05:56:33.018Z,94828.84
2023-02-22T05:58:59.380Z,94819.06
2023-02-22T06:01:25.797Z,94819.81
2023-02-22T06:03:52.177Z,94823.59
2023-02-22T06:06:19.629Z,94816.44
2023-02-22T06:08:47.510Z,94818.69
2023-02-22T06:11:13.860Z,94823.56
2023-02-22T06:13:40.246Z,94811.88
2023-02-22T06:16:06.625Z,94823.19
2023-02-22T06:18:33.022Z,94810.72
2023-02-22T06:20:59.391Z,94825.31
2023-02-22T06:23:25.779Z,94825.38
2023-02-22T06:25:52.163Z,94829.56
2023-02-22T06:28:18.593Z,94825.81
2023-02-22T06:30:45.029Z,94834.88
2023-02-22T06:33:11.480Z,94834.53
2023-02-22T06:35:37.843Z,94831.13
2023-02-22T06:38:04.246Z,94835.31
2023-02-22T06:40:30.639Z,94836.81
2023-02-22T06:42:57.025Z,94835.31
2023-02-22T06:45:23.391Z,94841.69
2023-02-22T06:47:49.880Z,94837.56
2023-02-22T06:50:16.260Z,94839.44
2023-02-22T06:52:42.644Z,94842.84
2023-02-22T06:55:09.086Z,94844.72
2023-02-22T06:57:35.474Z,94845.47
2023-02-22T07:00:01.855Z,94838.66
2023-02-22T07:02:28.236Z,94848.09
2023-02-22T07:04:54.607Z,94846.22
2023-02-22T07:07:20.977Z,94854.53
2023-02-22T07:09:47.366Z,94852.97
2023-02-22T07:12:13.766Z,94861.69
2023-02-22T07:14:40.154Z,94868.13
2023-02-22T07:17:06.532Z,94875.63
2023-02-22T07:19:32.902Z,94867.34
2023-02-22T07:21:59.535Z,94866.59
2023-02-22T07:24:26.076Z,94875.66
2023-02-22T07:26:52.467Z,94867.72
2023-02-22T07:29:18.848Z,94873.34
2023-02-22T07:31:45.243Z,94875.25
2023-02-22T07:34:11.662Z,94877.13
2023-02-22T07:36:38.023Z,94875.25
2023-02-22T07:39:04.414Z,94879.44
2023-02-22T07:41:30.786Z,94877.91
2023-02-22T07:43:57.177Z,94877.91
2023-02-22T07:46:23.585Z,94875.28
2023-02-22T07:48:49.970Z,94877.91
2023-02-22T07:51:16.584Z,94872.97
2023-02-22T07:53:43.173Z,94873.34
2023-02-22T07:56:09.536Z,94871.84
2023-02-22T07:58:35.944Z,94872.63
2023-02-22T08:01:02.459Z,94871.84
2023-02-22T08:03:28.926Z,94878.25
2023-02-22T08:05:55.362Z,94874.13
2023-02-22T08:08:21.794Z,94868.44
2023-02-22T08:10:48.173Z,94880.44
2023-02-22T08:13:14.560Z,94876.31
2023-02-22T08:15:40.996Z,94887.28
2023-02-22T08:18:07.422Z,94881.25
2023-02-22T08:20:33.801Z,94889.19
2023-02-22T08:23:00.182Z,94893.69
2023-02-22T08:25:26.550Z,94895.19
2023-02-22T08:27:52.915Z,94887.31
2023-02-22T08:30:19.356Z,94891.47
2023-02-22T08:32:45.811Z,94896.28
2023-02-22T08:35:12.209Z,94901.00
2023-02-22T08:37:38.609Z,94900.47
2023-02-22T08:40:05.017Z,94901.94
2023-02-22T08:42:31.386Z,94888.41
2023-02-22T08:44:57.755Z,94894.00
2023-02-22T08:47:24.143Z,94907.63
2023-02-22T08:49:50.497Z,94890.66
2023-02-22T08:52:16.945Z,94891.78
2023-02-22T08:54:43.414Z,94895.97
2023-02-22T08:57:09.788Z,94895.19
2023-02-22T08:59:36.164Z,94893.72
2023-02-22T09:02:02.519Z,94895.94
2023-02-22T09:04:28.912Z,94892.22
2023-02-22T09:06:55.302Z,94894.09
2023-02-22T09:09:21.675Z,94894.06
2023-02-22T09:11:48.036Z,94891.84
2023-02-22T09:14:14.439Z,94884.69
2023-02-22T09:16:40.900Z,94891.13
2023-02-22T09:19:07.337Z,94886.22
2023-02-22T09:21:33.706Z,94884.34
2023-02-22T09:24:00.097Z,94887.72
2023-02-22T09:26:26.454Z,94877.53
2023-02-22T09:28:52.824Z,94872.59
2023-02-22T09:31:19.560Z,94876.38
2023-02-22T09:33:47.506Z,94871.44
2023-02-22T09:36:14.279Z,94877.00
2023-02-22T09:38:40.784Z,94872.59
2023-02-22T09:41:07.171Z,94880.16
2023-02-22T09:43:33.545Z,94872.53
2023-02-22T09:45:59.967Z,94878.94
2023-02-22T09:48:26.344Z,94875.25
2023-02-22T09:50:52.727Z,94879.34
2023-02-22T09:53:19.145Z,94882.78
2023-02-22T09:55:45.566Z,94873.34
2023-02-22T09:58:11.942Z,94877.69
2023-02-22T10:00:38.336Z,94863.75
2023-02-22T10:03:04.715Z,94869.78
2023-02-22T10:05:31.139Z,94868.34
2023-02-22T10:07:57.544Z,94868.34
2023-02-22T10:10:23.996Z,94864.81
2023-02-22T10:12:50.434Z,94867.81
2023-02-22T10:15:16.816Z,94867.59
2023-02-22T10:17:43.186Z,94863.53
2023-02-22T10:20:09.556Z,94862.19
2023-02-22T10:22:39.052Z,94871.03
2023-02-22T10:25:05.454Z,94873.38
2023-02-22T10:27:31.874Z,94865.91
2023-02-22T10:29:58.417Z,94858.41
2023-02-22T10:32:24.830Z,94863.34
2023-02-22T10:34:51.207Z,94874.13
2023-02-22T10:37:17.602Z,94858.16
2023-02-22T10:39:44.076Z,94866.47
2023-02-22T10:42:10.472Z,94862.06
2023-02-22T10:44:36.840Z,94864.78
2023-02-22T10:47:03.242Z,94861.88
2023-02-22T10:49:29.605Z,94858.50
2023-02-22T10:51:56.011Z,94855.19
2023-02-22T10:54:22.377Z,94858.13
2023-02-22T10:56:48.795Z,94856.13
2023-02-22T10:59:15.180Z,94856.28
2023-02-22T11:01:41.633Z,94863.22
2023-02-22T11:04:08.005Z,94852.41
2023-02-22T11:06:34.435Z,94856.47
2023-02-22T11:09:00.818Z,94855.84
2023-02-22T11:11:27.203Z,94854.00
2023-02-22T11:13:53.606Z,94848.75
2023-02-22T11:16:20.034Z,94851.03
2023-02-22T11:18:46.431Z,94849.84
2023-02-22T11:21:12.854Z,94843.22
2023-02-22T11:23:39.223Z,94846.13
2023-02-22T11:26:05.600Z,94840.81
2023-02-22T11:28:32.004Z,94840.09
2023-02-22T11:30:58.513Z,94829.50
2023-02-22T11:33:24.977Z,94835.19
2023-02-22T11:35:51.348Z,94831.31
2023-02-22T11:38:17.737Z,94832.97
2023-02-22T11:40:44.112Z,94833.09
2023-02-22T11:43:10.481Z,94828.53
2023-02-22T11:45:38.577Z,94830.53
2023-02-22T11:48:06.467Z,94826.94
2023-02-22T11:50:32.861Z,94820.59
2023-02-22T11:52:59.223Z,94827.16
2023-02-22T11:55:41.471Z,94825.28
2023-02-22T11:58:08.975Z,94822.38
2023-02-22T12:00:35.349Z,94816.13
2023-02-22T12:03:01.838Z,94824.25
2023-02-22T12:05:28.292Z,94822.69
2023-02-22T12:07:54.661Z,94806.56
2023-02-22T12:10:21.061Z,94818.91
2023-02-22T12:12:47.430Z,94818.56
2023-02-22T12:15:13.834Z,94809.69
2023-02-22T12:17:41.790Z,94815.78
2023-02-22T12:20:08.285Z,94809.03
2023-02-22T12:22:34.712Z,94806.78
2023-02-22T12:25:09.403Z,94813.66
2023-02-22T12:27:36.323Z,94809.09
2023-02-22T12:30:02.728Z,94800.84
2023-02-22T12:32:29.171Z,94809.16
2023-02-22T12:34:55.608Z,94800.84
2023-02-22T12:37:21.996Z,94808.38
2023-02-22T12:39:53.867Z,94819.44
2023-02-22T12:42:20.516Z,94801.63
2023-02-22T12:44:46.880Z,94809.94
2023-02-22T12:47:13.337Z,94806.19
2023-02-22T12:49:39.728Z,94811.47
2023-02-22T12:52:20.640Z,94801.25
2023-02-22T12:54:47.899Z,94803.47
2023-02-22T12:57:14.289Z,94804.16
2023-02-22T12:59:40.680Z,94811.06
2023-02-22T13:02:07.128Z,94797.88
2023-02-22T13:04:33.502Z,94799.31
2023-02-22T13:06:59.874Z,94799.34
2023-02-22T13:09:26.250Z,94800.22
2023-02-22T13:11:52.607Z,94792.59
2023-02-22T13:14:19.017Z,94800.50
2023-02-22T13:16:45.411Z,94798.63
2023-02-22T13:19:11.773Z,94791.91
2023-02-22T13:21:38.196Z,94797.88
2023-02-22T13:24:04.605Z,94801.28
2023-02-22T13:26:30.976Z,94804.75
2023-02-22T13:28:57.390Z,94797.59
2023-02-22T13:31:23.809Z,94797.22
2023-02-22T13:33:50.195Z,94797.22
2023-02-22T13:36:16.894Z,94790.78
2023-02-22T13:38:43.555Z,94800.50
2023-02-22T13:41:09.996Z,94787.25
2023-02-22T13:43:36.357Z,94788.63
2023-02-22T13:46:02.754Z,94784.91
2023-02-22T13:48:29.140Z,94781.75
2023-02-22T13:50:55.502Z,94782.66
2023-02-22T13:53:21.895Z,94778.28
2023-02-22T13:55:48.268Z,94784.56
2023-02-22T13:58:14.661Z,94781.59
2023-02-22T14:00:41.049Z,94779.88
2023-02-22T14:03:07.462Z,94788.56
2023-02-22T14:05:33.859Z,94785.50
2023-02-22T14:08:00.273Z,94786.31
2023-02-22T14:10:26.675Z,94786.72
2023-02-22T14:12:53.051Z,94786.31
2023-02-22T14:15:29.140Z,94785.56
2023-02-22T14:17:56.269Z,94782.59
2023-02-22T14:20:22.656Z,94785.00
2023-02-22T14:22:49.114Z,94784.94
2023-02-22T14:25:27.799Z,94776.25
2023-02-22T14:27:54.601Z,94778.53
2023-02-22T14:30:21.008Z,94781.50
2023-02-22T14:32:47.594Z,94775.03
2023-02-22T14:35:25.242Z,94773.94
2023-02-22T14:37:53.635Z,94781.91
2023-02-22T14:40:20.130Z,94777.72
2023-02-22T14:42:46.590Z,94776.13
2023-02-22T14:45:12.995Z,94778.06
2023-02-22T14:47:39.411Z,94781.75
2023-02-22T14:50:05.805Z,94781.09
2023-02-22T14:52:32.198Z,94780.03
2023-02-22T14:54:58.580Z,94777.72
2023-02-22T14:57:24.952Z,94768.59
2023-02-22T14:59:51.330Z,94771.25
2023-02-22T15:02:17.745Z,94778.03
2023-02-22T15:04:44.328Z,94772.75
2023-02-22T15:07:10.740Z,94769.94
2023-02-22T15:09:37.119Z,94761.13
2023-02-22T15:12:03.506Z,94774.06
2023-02-22T15:14:29.878Z,94766.59
2023-02-22T15:16:56.259Z,94768.63
2023-02-22T15:19:22.639Z,94764.16
2023-02-22T15:21:49.005Z,94767.56
2023-02-22T15:24:15.393Z,94771.03
2023-02-22T15:26:49.165Z,94762.94
2023-02-22T15:29:21.920Z,94765.94
2023-02-22T15:31:48.713Z,94761.25
2023-02-22T15:34:15.368Z,94779.81
2023-02-22T15:36:41.872Z,94774.97
2023-02-22T15:39:08.240Z,94772.66
2023-02-22T15:41:34.737Z,94770.47
2023-02-22T15:44:05.405Z,94776.59
2023-02-22T15:46:34.476Z,94775.88
2023-02-22T15:49:00.856Z,94781.22
2023-02-22T15:51:27.238Z,94777.13
2023-02-22T15:53:53.608Z,94778.94
2023-02-22T15:56:19.978Z,94770.97
2023-02-22T15:58:46.357Z,94772.81
2023-02-22T16:01:12.736Z,94771.97
2023-02-22T16:03:39.185Z,94767.84
2023-02-22T16:06:05.933Z,94768.22
2023-02-22T16:08:33.572Z,94766.84
2023-02-22T16:11:00.005Z,94766.00
2023-02-22T16:13:31.949Z,94759.75
2023-02-22T16:15:59.003Z,94763.16
2023-02-22T16:18:25.380Z,94766.16
2023-02-22T16:20:51.806Z,94763.50
2023-02-22T16:23:18.192Z,94767.25
2023-02-22T16:25:44.549Z,94769.91
2023-02-22T16:28:10.940Z,94769.16
2023-02-22T16:30:37.417Z,94772.94
2023-02-22T16:33:03.873Z,94763.88
2023-02-22T16:35:30.237Z,94764.44
2023-02-22T16:37:56.648Z,94757.59
2023-02-22T16:40:23.022Z,94761.41
2023-02-22T16:42:49.412Z,94761.34
2023-02-22T16:45:15.778Z,94758.19
2023-02-22T16:47:42.152Z,94761.75
2023-02-22T16:50:08.551Z,94766.69
2023-02-22T16:52:34.935Z,94764.78
2023-02-22T16:55:01.325Z,94755.00
2023-02-22T16:57:27.686Z,94755.59
2023-02-22T16:59:54.083Z,94750.06
2023-02-22T17:02:20.468Z,94756.16
2023-02-22T17:04:46.906Z,94763.00
2023-02-22T17:07:13.280Z,94772.81
2023-02-22T17:09:39.657Z,94769.94
2023-02-22T17:12:06.028Z,94757.09
2023-02-22T17:14:32.417Z,94767.66
2023-02-22T17:16:58.794Z,94772.59
2023-02-22T17:19:28.193Z,94770.66
2023-02-22T17:21:54.571Z,94780.34
2023-02-22T17:24:20.973Z,94772.47
2023-02-22T17:26:47.369Z,94773.69
2023-02-22T17:29:13.758Z,94772.16
2023-02-22T17:31:40.245Z,94777.81
2023-02-22T17:34:06.705Z,94782.69
2023-02-22T17:36:33.096Z,94775.94
2023-02-22T17:38:59.675Z,94777.84
2023-02-22T17:41:26.073Z,94782.66
2023-02-22T17:43:52.434Z,94784.88
2023-02-22T17:46:19.087Z,94794.06
2023-02-22T17:48:45.668Z,94787.28
2023-02-22T17:51:13.193Z,94787.66
2023-02-22T17:53:39.596Z,94794.72
2023-02-22T17:56:05.955Z,94788.97
2023-02-22T17:58:32.377Z,94792.03
2023-02-22T18:00:58.818Z,94794.31
2023-02-22T18:03:25.930Z,94799.25
2023-02-22T18:05:54.944Z,94793.22
2023-02-22T18:08:22.360Z,94790.94
2023-02-22T18:10:48.723Z,94798.38
2023-02-22T18:13:15.114Z,94792.38
2023-02-22T18:15:41.515Z,94796.16
2023-02-22T18:18:07.987Z,94791.69
2023-02-22T18:20:34.376Z,94790.94
2023-02-22T18:23:00.772Z,94796.28
2023-02-22T18:25:27.157Z,94789.44
2023-02-22T18:27:53.558Z,94784.88
2023-02-22T18:30:19.971Z,94783.81
2023-02-22T18:32:46.361Z,94778.91
2023-02-22T18:35:12.749Z,94779.66
2023-02-22T18:37:39.127Z,94781.88
2023-02-22T18:40:05.516Z,94782.31
2023-02-22T18:42:31.906Z,94784.25
2023-02-22T18:44:58.362Z,94771.41
2023-02-22T18:47:24.742Z,94780.81
2023-02-22T18:49:51.105Z,94773.19
2023-02-22T18:52:17.485Z,94770.59
2023-02-22T18:54:43.853Z,94774.75
2023-02-22T18:57:10.257Z,94761.53
2023-02-22T18:59:36.653Z,94769.13
2023-02-22T19:02:03.048Z,94763.03
2023-02-22T19:04:29.445Z,94771.31
2023-02-22T19:06:55.817Z,94772.88
2023-02-22T19:09:22.235Z,94770.19
2023-02-22T19:11:48.652Z,94768.28
2023-02-22T19:14:15.058Z,94778.19
2023-02-22T19:16:41.457Z,94770.25
2023-02-22T19:19:07.852Z,94770.56
2023-02-22T19:21:34.248Z,94768.38
2023-02-22T19:24:00.630Z,94772.97
2023-02-22T19:26:27.042Z,94762.72
2023-02-22T19:28:53.402Z,94760.88
2023-02-22T19:31:20.169Z,94763.91
2023-02-22T19:33:46.946Z,94760.81
2023-02-22T19:36:14.566Z,94764.13
2023-02-22T19:38:40.949Z,94767.94
2023-02-22T19:41:10.047Z,94764.56
2023-02-22T19:43:36.803Z,94765.69
2023-02-22T19:46:03.305Z,94775.13
2023-02-22T19:48:29.723Z,94767.63
2023-02-22T19:50:56.086Z,94768.75
2023-02-22T19:53:22.464Z,94772.91
2023-02-22T19:55:48.869Z,94770.69
2023-02-22T19:58:15.273Z,94771.06
2023-02-22T20:00:41.661Z,94768.41
2023-02-22T20:03:08.129Z,94766.09
2023-02-22T20:05:34.534Z,94772.09
2023-02-22T20:08:00.926Z,94769.34
2023-02-22T20:10:27.340Z,94769.69
2023-02-22T20:12:53.745Z,94763.59
2023-02-22T20:15:20.145Z,94771.16
2023-02-22T20:17:46.522Z,94765.19
2023-02-22T20:20:12.908Z,94765.16
2023-02-22T20:22:39.360Z,94771.19
2023-02-22T20:25:05.761Z,94767.56
2023-02-22T20:27:32.215Z,94751.63
2023-02-22T20:29:58.608Z,94766.81
2023-02-22T20:32:25.126Z,94766.81
2023-02-22T20:34:51.683Z,94761.41
2023-02-22T20:37:18.078Z,94762.19
2023-02-22T20:39:44.465Z,94761.38
2023-02-22T20:42:10.855Z,94765.25
2023-02-22T20:44:37.209Z,94766.41
2023-02-22T20:47:03.638Z,94769.09
2023-02-22T20:49:30.063Z,94765.34
2023-02-22T20:51:56.437Z,94770.22
2023-02-22T20:54:22.952Z,94767.19
2023-02-22T20:56:50.697Z,94765.97
2023-02-22T20:59:18.120Z,94772.41
2023-02-22T21:01:44.522Z,94774.06
2023-02-22T21:04:10.897Z,94770.59
2023-02-22T21:06:37.292Z,94764.56
2023-02-22T21:09:03.693Z,94762.69
2023-02-22T21:11:30.081Z,94766.03
2023-02-22T21:13:56.484Z,94752.03
2023-02-22T21:16:22.920Z,94769.88
2023-02-22T21:18:49.353Z,94766.81
2023-02-22T21:21:15.884Z,94764.59
2023-02-22T21:23:42.354Z,94768.00
2023-02-22T21:26:08.736Z,94768.28
2023-02-22T21:28:50.400Z,94763.78
2023-02-22T21:31:17.971Z,94762.72
2023-02-22T21:33:44.582Z,94758.59
2023-02-22T21:36:11.024Z,94763.16
2023-02-22T21:38:37.408Z,94771.41
2023-02-22T21:41:03.782Z,94765.78
2023-02-22T21:43:30.185Z,94771.41
2023-02-22T21:45:56.636Z,94772.19
2023-02-22T21:48:23.025Z,94764.59
2023-02-22T21:50:52.460Z,94768.38
2023-02-22T21:53:18.837Z,94773.31
2023-02-22T21:55:45.222Z,94771.06
2023-02-22T21:58:11.599Z,94774.09
2023-02-22T22:00:38.031Z,94769.16
2023-02-22T22:03:04.491Z,94774.50
2023-02-22T22:05:30.866Z,94761.66
2023-02-22T22:07:57.247Z,94769.19
2023-02-22T22:10:23.627Z,94764.72
2023-02-22T22:12:50.049Z,94769.63
2023-02-22T22:15:16.465Z,94770.78
2023-02-22T22:17:42.853Z,94763.25
2023-02-22T22:20:09.227Z,94761.31
2023-02-22T22:22:35.597Z,94760.19
2023-02-22T22:25:01.970Z,94759.75
2023-02-22T22:27:28.340Z,94762.78
2023-02-22T22:29:54.766Z,94757.09
2023-02-22T22:32:21.210Z,94755.59
2023-02-22T22:34:47.599Z,94750.56
2023-02-22T22:37:13.955Z,94756.19
2023-02-22T22:39:40.350Z,94753.50
2023-02-22T22:42:06.758Z,94752.09
2023-02-22T22:44:33.221Z,94749.78
2023-02-22T22:46:59.622Z,94743.75
2023-02-22T22:49:26.044Z,94744.16
2023-02-22T22:51:52.412Z,94746.44
2023-02-22T22:54:18.841Z,94733.19
2023-02-22T22:56:45.212Z,94743.25
2023-02-22T22:59:11.570Z,94735.00
2023-02-22T23:01:37.951Z,94733.41
2023-02-22T23:04:04.309Z,94731.97
2023-02-22T23:06:30.820Z,94738.66
2023-02-22T23:08:57.225Z,94730.25
2023-02-22T23:11:23.577Z,94732.63
2023-02-22T23:13:49.945Z,94740.25
2023-02-22T23:16:16.321Z,94740.25
2023-02-22T23:18:42.771Z,94736.78
2023-02-22T23:21:09.136Z,94735.09
2023-02-22T23:23:35.512Z,94737.00
2023-02-22T23:26:01.879Z,94733.69
2023-02-22T23:28:28.280Z,94733.72
2023-02-22T23:30:54.771Z,94731.44
2023-02-22T23:33:21.206Z,94729.13
2023-02-22T23:35:47.574Z,94732.88
2023-02-22T23:38:13.970Z,94726.81
2023-02-22T23:40:40.337Z,94727.13
2023-02-22T23:43:06.720Z,94733.09
2023-02-22T23:45:33.123Z,94720.84
2023-02-22T23:47:59.510Z,94725.78
2023-02-22T23:50:25.893Z,94731.81
2023-02-22T23:52:52.282Z,94722.97
2023-02-22T23:55:18.700Z,94723.09
2023-02-22T23:57:45.065Z,94720.50
